Time;durP1;ratioP1;P1;durP2;ratioP2;P2;SDS_P1;SDS_P2;PMS_P1;PMS_P2;Temp;Humidity;BMP_temperature;BMP_pressure;BME280_temperature;BME280_humidity;BME280_pressure;Samples;Min_cycle;Max_cycle;Signal;HPM_P1;HPM_P2
2021/04/20 00:00:26;;;;;;;64.53;35.65;;;282.20;2227.20;;;;;;5092392;28;20024;-77
2021/04/20 00:02:52;;;;;;;88.32;43.35;;;282.10;2201.60;;;;;;5093360;28;20079;-77
2021/04/20 00:05:19;;;;;;;83.90;44.65;;;282.10;2201.60;;;;;;5093365;28;20020;-77
2021/04/20 00:07:45;;;;;;;53.63;30.77;;;282.10;2201.60;;;;;;5092040;28;20721;-77
2021/04/20 00:10:14;;;;;;;45.33;25.73;;;282.10;2201.60;;;;;;5091875;28;20025;-77
2021/04/20 00:12:41;;;;;;;44.95;25.55;;;282.10;2201.60;;;;;;5093170;28;20027;-77
2021/04/20 00:15:13;;;;;;;42.20;26.25;;;282.10;2227.20;;;;;;5093536;28;20104;-77
2021/04/20 00:17:39;;;;;;;33.00;23.13;;;282.10;2227.20;;;;;;5093161;28;20369;-77
2021/04/20 00:20:10;;;;;;;31.48;20.38;;;282.10;2227.20;;;;;;5093171;28;20047;-77
2021/04/20 00:22:36;;;;;;;;;;;282.10;2227.20;;;;;;5092365;28;20035;-78
2021/04/20 00:25:01;;;;;;;36.85;22.30;;;282.10;2227.20;;;;;;5093074;28;19904;-78
2021/04/20 00:27:27;;;;;;;26.27;19.00;;;282.10;2227.20;;;;;;5093429;28;20104;-78
2021/04/20 00:29:53;;;;;;;31.83;20.92;;;282.10;2227.20;;;;;;5093068;28;20020;-77
2021/04/20 00:32:19;;;;;;;27.92;20.05;;;282.10;2227.20;;;;;;5093365;28;20020;-78
2021/04/20 00:34:44;;;;;;;26.27;19.58;;;282.10;2227.20;;;;;;5090969;28;20458;-78
2021/04/20 00:37:10;;;;;;;24.15;18.48;;;282.10;2227.20;;;;;;5092934;28;20027;-78
2021/04/20 00:39:38;;;;;;;25.65;20.40;;;282.10;2227.20;;;;;;5093149;28;20024;-78
2021/04/20 00:42:09;;;;;;;31.83;20.42;;;282.10;2227.20;;;;;;5091792;28;20077;-78
2021/04/20 00:44:35;;;;;;;;;;;282.10;2227.20;;;;;;5093320;28;20020;-77
2021/04/20 00:47:02;;;;;;;27.80;19.25;;;282.00;2227.20;;;;;;5096461;28;19947;-77
2021/04/20 00:49:28;;;;;;;26.17;20.05;;;282.00;2227.20;;;;;;5095462;28;20034;-77
2021/04/20 00:51:55;;;;;;;28.75;20.30;;;282.00;2227.20;;;;;;5095374;28;20028;-77
2021/04/20 00:54:22;;;;;;;32.95;21.38;;;282.00;2227.20;;;;;;5097034;28;20020;-77
2021/04/20 00:56:48;;;;;;;29.88;21.45;;;282.00;2227.20;;;;;;5095458;28;20062;-77
2021/04/20 00:59:14;;;;;;;32.50;20.73;;;282.00;2227.20;;;;;;5096617;28;20104;-78
2021/04/20 01:01:41;;;;;;;31.52;20.67;;;282.00;2227.20;;;;;;5096653;28;20020;-77
2021/04/20 01:04:12;;;;;;;29.70;21.38;;;282.00;2227.20;;;;;;5096461;28;20028;-78
2021/04/20 01:06:41;;;;;;;35.58;25.33;;;282.00;2227.20;;;;;;5095279;28;20385;-78
2021/04/20 01:09:08;;;;;;;36.33;25.10;;;282.00;2227.20;;;;;;5095156;28;20024;-77
2021/04/20 01:11:39;;;;;;;33.92;23.23;;;282.00;2227.20;;;;;;5096347;28;20025;-77
2021/04/20 01:14:06;;;;;;;30.00;22.55;;;281.90;2227.20;;;;;;5095178;28;20117;-79
2021/04/20 01:16:36;;;;;;;33.65;23.80;;;282.00;2227.20;;;;;;5096123;28;20033;-78
2021/04/20 01:19:04;;;;;;;33.72;23.58;;;282.00;2227.20;;;;;;5094434;28;20055;-77
2021/04/20 01:21:32;;;;;;;31.42;22.25;;;282.00;2227.20;;;;;;5094941;28;20036;-77
2021/04/20 01:24:07;;;;;;;34.20;22.88;;;282.00;2227.20;;;;;;5094699;28;20028;-77
2021/04/20 01:26:42;;;;;;;30.85;21.42;;;282.00;2227.20;;;;;;5096210;28;20130;-77
2021/04/20 01:29:09;;;;;;;28.45;20.92;;;282.00;2227.20;;;;;;5096056;28;20056;-77
2021/04/20 01:31:38;;;;;;;28.17;20.73;;;282.00;2227.20;;;;;;5096000;28;20024;-78
2021/04/20 01:34:04;;;;;;;30.63;22.25;;;282.00;2227.20;;;;;;5095979;28;20024;-77
2021/04/20 01:36:31;;;;;;;35.47;20.55;;;282.00;2227.20;;;;;;5094721;28;20050;-77
2021/04/20 01:38:58;;;;;;;31.35;21.42;;;282.00;2227.20;;;;;;5094503;28;20039;-77
2021/04/20 01:41:25;;;;;;;30.52;20.15;;;282.00;2227.20;;;;;;5095900;28;20028;-77
2021/04/20 01:43:53;;;;;;;31.65;22.27;;;282.00;2227.20;;;;;;5094044;28;20035;-76
2021/04/20 01:46:19;;;;;;;27.35;20.13;;;281.90;2227.20;;;;;;5095600;28;20072;-76
2021/04/20 01:48:47;;;;;;;31.80;20.55;;;281.90;2252.80;;;;;;5094410;28;20124;-76
2021/04/20 01:51:14;;;;;;;31.20;21.65;;;281.90;2227.20;;;;;;5095591;28;20107;-77
2021/04/20 01:53:40;;;;;;;32.30;22.20;;;281.90;2227.20;;;;;;5094350;28;20024;-77
2021/04/20 01:56:08;;;;;;;28.90;20.38;;;281.90;2227.20;;;;;;5095644;28;20019;-77
2021/04/20 01:58:35;;;;;;;27.80;21.20;;;281.90;2227.20;;;;;;5095403;28;20036;-77
2021/04/20 02:01:16;;;;;;;29.35;22.13;;;281.90;2227.20;;;;;;5093342;28;20024;-77
2021/04/20 02:03:45;;;;;;;;;;;281.90;2227.20;;;;;;5094606;28;20055;-77
2021/04/20 02:06:14;;;;;;;31.92;22.50;;;281.90;2227.20;;;;;;5095420;28;19904;-78
2021/04/20 02:08:40;;;;;;;31.30;23.23;;;281.90;2252.80;;;;;;5095203;28;20036;-78
2021/04/20 02:11:08;;;;;;;33.85;23.60;;;281.90;2227.20;;;;;;5095474;28;20023;-78
2021/04/20 02:13:34;;;;;;;31.52;23.38;;;281.90;2252.80;;;;;;5093652;28;20032;-78
2021/04/20 02:16:04;;;;;;;33.85;23.83;;;281.90;2252.80;;;;;;5095300;28;20089;-77
2021/04/20 02:18:44;;;;;;;36.53;24.30;;;281.90;2252.80;;;;;;5095141;28;20024;-78
2021/04/20 02:21:12;;;;;;;34.27;22.77;;;281.90;2252.80;;;;;;5093946;28;20111;-78
2021/04/20 02:23:40;;;;;;;34.60;24.92;;;281.90;2252.80;;;;;;5093798;28;20036;-77
2021/04/20 02:26:08;;;;;;;32.92;23.75;;;281.80;2252.80;;;;;;5093717;28;20028;-79
2021/04/20 02:28:34;;;;;;;29.90;22.15;;;281.80;2252.80;;;;;;5094879;28;20028;-77
2021/04/20 02:31:01;;;;;;;34.35;24.35;;;281.80;2252.80;;;;;;5093638;28;20024;-77
2021/04/20 02:33:28;;;;;;;29.33;22.67;;;281.80;2252.80;;;;;;5093528;28;20024;-77
2021/04/20 02:35:59;;;;;;;33.88;23.33;;;281.80;2252.80;;;;;;5093498;28;20377;-78
2021/04/20 02:38:26;;;;;;;31.95;23.20;;;281.80;2252.80;;;;;;5094760;28;20103;-78
2021/04/20 02:41:02;;;;;;;31.35;21.92;;;281.80;2252.80;;;;;;5094696;28;20027;-78
2021/04/20 02:43:28;;;;;;;37.42;24.00;;;281.80;2252.80;;;;;;5093932;28;20076;-77
2021/04/20 02:45:57;;;;;;;35.15;25.27;;;281.70;2252.80;;;;;;5094542;28;20119;-77
2021/04/20 02:48:23;;;;;;;34.80;22.85;;;281.70;2252.80;;;;;;5094601;28;20089;-78
2021/04/20 02:50:51;;;;;;;29.77;22.13;;;281.70;2252.80;;;;;;5094614;28;20024;-78
2021/04/20 02:53:19;;;;;;;30.42;22.65;;;281.70;2252.80;;;;;;5093553;28;20040;-77
2021/04/20 02:55:45;;;;;;;34.78;25.58;;;281.70;2252.80;;;;;;5094464;28;20023;-77
2021/04/20 02:58:15;;;;;;;31.55;23.60;;;281.70;2252.80;;;;;;5094391;28;20030;-77
2021/04/20 03:00:46;;;;;;;36.73;26.27;;;281.70;2252.80;;;;;;5093138;28;20104;-77
2021/04/20 03:03:16;;;;;;;33.38;22.70;;;281.70;2252.80;;;;;;5094516;28;20107;-78
2021/04/20 03:05:42;;;;;;;;;;;281.70;2252.80;;;;;;5092899;28;20071;-77
2021/04/20 03:08:09;;;;;;;30.67;22.85;;;281.70;2278.40;;;;;;5091188;28;20392;-77
2021/04/20 03:10:38;;;;;;;28.85;21.20;;;281.70;2278.40;;;;;;5094363;28;20023;-77
2021/04/20 03:13:05;;;;;;;33.88;23.25;;;281.70;2278.40;;;;;;5094210;28;20047;-77
2021/04/20 03:15:32;;;;;;;36.75;24.17;;;281.60;2278.40;;;;;;5094174;28;20028;-77
2021/04/20 03:17:58;;;;;;;35.47;24.52;;;281.60;2278.40;;;;;;5092661;28;20063;-78
2021/04/20 03:20:24;;;;;;;33.33;23.80;;;281.60;2278.40;;;;;;5094123;28;20020;-77
2021/04/20 03:22:51;;;;;;;33.97;23.35;;;281.60;2278.40;;;;;;5091736;28;20505;-77
2021/04/20 03:25:27;;;;;;;36.13;24.33;;;281.60;2278.40;;;;;;5093086;28;20051;-77
2021/04/20 03:27:55;;;;;;;40.95;24.48;;;281.60;2278.40;;;;;;5092867;28;20028;-77
2021/04/20 03:30:24;;;;;;;32.63;23.67;;;281.60;2278.40;;;;;;5094185;28;20485;-77
2021/04/20 03:33:02;;;;;;;32.22;24.60;;;281.60;2278.40;;;;;;5093860;28;20089;-77
2021/04/20 03:35:38;;;;;;;30.73;23.30;;;281.60;2278.40;;;;;;5094007;28;20392;-77
2021/04/20 03:38:09;;;;;;;32.05;23.30;;;281.60;2278.40;;;;;;5092248;28;20032;-77
2021/04/20 03:40:38;;;;;;;33.35;24.08;;;281.60;2278.40;;;;;;5094237;28;20024;-76
2021/04/20 03:43:11;;;;;;;32.97;23.42;;;281.60;2278.40;;;;;;5093761;28;20020;-76
2021/04/20 03:45:52;;;;;;;32.95;21.55;;;281.60;2278.40;;;;;;5093816;28;20086;-77
2021/04/20 03:49:05;;;;;;;32.33;22.40;;;281.60;2278.40;;;;;;5094042;28;20098;-76
2021/04/20 03:51:32;;;;;;;35.53;23.33;;;256.90;2252.80;;;;;;5096078;28;20410;-78
2021/04/20 03:54:07;;;;;;;28.25;21.42;;;256.90;2252.80;;;;;;5106152;28;20039;-76
2021/04/20 03:56:33;;;;;;;31.92;22.45;;;256.90;2252.80;;;;;;5098366;28;20485;-77
2021/04/20 03:59:02;;;;;;;29.55;21.50;;;256.90;2252.80;;;;;;5093511;28;20035;-77
2021/04/20 04:01:37;;;;;;;28.40;20.92;;;256.90;2252.80;;;;;;5092384;28;20055;-77
2021/04/20 04:04:06;;;;;;;28.08;20.90;;;256.90;2252.80;;;;;;5092178;28;20444;-77
2021/04/20 04:06:37;;;;;;;32.22;21.33;;;256.90;2252.80;;;;;;5091741;28;20044;-77
2021/04/20 04:09:03;;;;;;;27.77;21.23;;;256.90;2252.80;;;;;;5091998;28;20035;-76
2021/04/20 04:11:33;;;;;;;54.65;34.33;;;256.90;2252.80;;;;;;5093342;28;20100;-77
2021/04/20 04:14:02;;;;;;;40.63;26.05;;;256.90;2252.80;;;;;;5093608;28;20021;-77
2021/04/20 04:16:31;;;;;;;36.75;24.85;;;256.90;2252.80;;;;;;5093258;28;20052;-78
2021/04/20 04:18:59;;;;;;;32.88;22.80;;;256.90;2252.80;;;;;;5094272;28;20040;-78
2021/04/20 04:21:30;;;;;;;27.40;20.85;;;256.90;2252.80;;;;;;5097166;28;20097;-77
2021/04/20 04:23:59;;;;;;;;;;;256.90;2252.80;;;;;;5096502;28;20393;-77
2021/04/20 04:26:29;;;;;;;31.77;21.75;;;256.90;2252.80;;;;;;5097262;28;19911;-77
2021/04/20 04:28:58;;;;;;;32.47;21.63;;;256.90;2252.80;;;;;;5095473;28;20092;-78
2021/04/20 04:31:25;;;;;;;34.53;23.08;;;256.90;2252.80;;;;;;5097448;28;20412;-77
2021/04/20 04:33:52;;;;;;;33.75;22.73;;;256.90;2252.80;;;;;;5095769;28;20395;-76
2021/04/20 04:36:19;;;;;;;36.05;23.92;;;256.90;2252.80;;;;;;5097044;28;20024;-76
2021/04/20 04:38:45;;;;;;;35.97;25.02;;;256.90;2252.80;;;;;;5095853;28;20473;-77
2021/04/20 04:41:12;;;;;;;39.63;27.65;;;256.90;2252.80;;;;;;5097100;28;20020;-77
2021/04/20 04:43:40;;;;;;;41.67;27.92;;;256.90;2252.80;;;;;;5095769;28;20512;-78
2021/04/20 04:46:06;;;;;;;37.67;27.67;;;256.90;2252.80;;;;;;5095633;28;20113;-78
2021/04/20 04:48:32;;;;;;;39.30;27.13;;;256.90;2252.80;;;;;;5095834;28;20477;-77
2021/04/20 04:51:01;;;;;;;36.30;24.83;;;256.90;2252.80;;;;;;5095574;28;20074;-77
2021/04/20 04:53:28;;;;;;;38.28;25.65;;;256.90;2252.80;;;;;;5095476;28;20024;-77
2021/04/20 04:55:56;;;;;;;37.20;26.60;;;281.60;2278.40;;;;;;5095482;28;20020;-77
2021/04/20 04:58:27;;;;;;;36.72;25.83;;;281.60;2278.40;;;;;;5095474;28;20024;-77
2021/04/20 05:00:55;;;;;;;53.85;34.45;;;256.90;2252.80;;;;;;5097032;28;20027;-77
2021/04/20 05:03:25;;;;;;;56.35;34.65;;;281.60;2278.40;;;;;;5096656;28;20028;-77
2021/04/20 05:05:59;;;;;;;61.67;36.73;;;256.90;2252.80;;;;;;5096698;28;20023;-78
2021/04/20 05:08:25;;;;;;;85.82;53.05;;;281.60;2278.40;;;;;;5095933;28;20797;-77
2021/04/20 05:10:51;;;;;;;76.78;48.88;;;281.60;2278.40;;;;;;5094263;28;20154;-77
2021/04/20 05:13:18;;;;;;;61.13;39.22;;;281.60;2278.40;;;;;;5095810;28;20035;-77
2021/04/20 05:15:43;;;;;;;52.80;36.58;;;281.60;2278.40;;;;;;5096278;28;20028;-76
2021/04/20 05:18:13;;;;;;;43.60;31.55;;;281.60;2278.40;;;;;;5096068;28;20089;-76
2021/04/20 05:20:44;;;;;;;43.43;30.13;;;281.60;2278.40;;;;;;5096335;28;20047;-78
2021/04/20 05:23:14;;;;;;;42.25;28.88;;;281.60;2278.40;;;;;;5096124;28;20357;-78
2021/04/20 05:25:40;;;;;;;40.88;29.52;;;281.60;2278.40;;;;;;5094659;28;20047;-78
2021/04/20 05:28:06;;;;;;;43.50;29.08;;;281.70;2278.40;;;;;;5095270;28;20379;-78
2021/04/20 05:30:33;;;;;;;40.30;26.75;;;281.70;2278.40;;;;;;5093234;28;20378;-77
2021/04/20 05:33:00;;;;;;;44.42;29.67;;;281.70;2278.40;;;;;;5095536;28;20024;-78
2021/04/20 05:35:27;;;;;;;54.03;36.95;;;281.70;2278.40;;;;;;5092246;28;20046;-78
2021/04/20 05:37:53;;;;;;;71.40;51.08;;;281.70;2278.40;;;;;;5088786;28;20104;-78
2021/04/20 05:40:26;;;;;;;96.93;69.40;;;281.70;2278.40;;;;;;5110742;28;20031;-78
2021/04/20 05:42:53;;;;;;;71.35;52.72;;;281.70;2278.40;;;;;;5094329;28;20060;-77
2021/04/20 05:45:19;;;;;;;54.13;42.65;;;281.70;2278.40;;;;;;5095341;28;20046;-79
2021/04/20 05:47:48;;;;;;;52.10;34.78;;;281.70;2278.40;;;;;;5094247;28;20035;-78
2021/04/20 05:50:17;;;;;;;57.38;38.30;;;281.80;2278.40;;;;;;5095878;28;20024;-79
2021/04/20 05:52:43;;;;;;;60.80;35.87;;;281.70;2278.40;;;;;;5094594;28;20125;-78
2021/04/20 05:55:10;;;;;;;50.75;33.30;;;281.80;2278.40;;;;;;5100607;28;20019;-78
2021/04/20 05:57:36;;;;;;;48.70;34.30;;;281.80;2278.40;;;;;;5071970;28;20028;-78
2021/04/20 06:00:05;;;;;;;45.30;32.78;;;281.90;2278.40;;;;;;5073946;28;20028;-79
2021/04/20 06:02:34;;;;;;;44.63;32.42;;;281.90;2278.40;;;;;;5074081;28;20024;-78
2021/04/20 06:05:04;;;;;;;44.85;31.85;;;281.90;2278.40;;;;;;5076777;28;20077;-78
2021/04/20 06:07:33;;;;;;;41.40;30.55;;;281.90;2278.40;;;;;;5076979;28;20516;-79
2021/04/20 06:09:59;;;;;;;49.40;32.95;;;281.90;2278.40;;;;;;5073393;28;20077;-78
2021/04/20 06:12:25;;;;;;;55.20;36.03;;;281.90;2278.40;;;;;;5073489;28;20021;-78
2021/04/20 06:14:51;;;;;;;55.05;38.45;;;282.00;2278.40;;;;;;5073453;28;20111;-78
2021/04/20 06:17:17;;;;;;;53.33;35.45;;;282.00;2278.40;;;;;;5073419;28;20024;-78
2021/04/20 06:19:43;;;;;;;49.85;33.28;;;282.10;2278.40;;;;;;5071798;28;20059;-78
2021/04/20 06:22:16;;;;;;;49.63;34.58;;;282.10;2278.40;;;;;;5072090;28;20028;-78
2021/04/20 06:24:44;;;;;;;60.78;38.40;;;282.10;2278.40;;;;;;5072407;28;20046;-78
2021/04/20 06:27:12;;;;;;;53.78;34.25;;;282.10;2278.40;;;;;;5073493;28;20028;-78
2021/04/20 06:29:38;;;;;;;57.08;37.78;;;282.20;2278.40;;;;;;5072033;28;20107;-78
2021/04/20 06:32:04;;;;;;;60.88;38.58;;;282.20;2278.40;;;;;;5071709;28;20645;-78
2021/04/20 06:34:31;;;;;;;59.00;37.35;;;282.20;2278.40;;;;;;5071885;28;20150;-78
2021/04/20 06:36:58;;;;;;;55.60;36.70;;;282.30;2278.40;;;;;;5073201;28;20441;-78
2021/04/20 06:39:24;;;;;;;53.10;37.20;;;282.30;2278.40;;;;;;5072022;28;20353;-78
2021/04/20 06:41:56;;;;;;;53.30;38.03;;;282.30;2278.40;;;;;;5070846;28;20393;-79
2021/04/20 06:44:36;;;;;;;47.72;34.95;;;282.30;2278.40;;;;;;5071449;28;20044;-78
2021/04/20 06:47:19;;;;;;;54.92;37.63;;;282.40;2278.40;;;;;;5073003;28;20024;-77
2021/04/20 06:49:51;;;;;;;54.90;37.38;;;282.50;2278.40;;;;;;5071566;28;20028;-78
2021/04/20 06:52:59;;;;;;;55.15;36.70;;;282.50;2278.40;;;;;;5071470;28;20044;-74
2021/04/20 06:55:40;;;;;;;54.00;37.03;;;307.20;2304.00;;;;;;5050053;28;20486;-80
2021/04/20 06:58:16;;;;;;;;;;;307.20;2304.00;;;;;;5073013;28;20028;-78
2021/04/20 07:00:55;;;;;;;53.03;35.92;;;307.30;2304.00;;;;;;5072419;28;19905;-78
2021/04/20 07:03:40;;;;;;;44.28;32.63;;;307.30;2304.00;;;;;;5071045;28;20476;-78
2021/04/20 07:06:20;;;;;;;47.13;34.80;;;307.30;2304.00;;;;;;5080243;28;20032;-78
2021/04/20 07:09:02;;;;;;;53.70;37.78;;;307.40;2304.00;;;;;;5088761;28;20036;-78
2021/04/20 07:11:31;;;;;;;57.45;39.80;;;307.40;2304.00;;;;;;5095675;28;20019;-78
2021/04/20 07:14:01;;;;;;;57.88;38.63;;;307.40;2304.00;;;;;;5111373;28;20533;-78
2021/04/20 07:16:40;;;;;;;46.50;34.28;;;307.50;2304.00;;;;;;5111363;28;20377;-78
2021/04/20 07:19:29;;;;;;;51.78;37.05;;;307.60;2304.00;;;;;;5113067;28;20019;-78
2021/04/20 07:22:23;;;;;;;48.50;34.95;;;307.60;2278.40;;;;;;5111358;28;20030;-78
2021/04/20 07:25:05;;;;;;;46.97;37.05;;;307.70;2278.40;;;;;;5111275;28;20028;-78
2021/04/20 07:27:58;;;;;;;54.22;39.40;;;307.80;2252.80;;;;;;5111510;28;20027;-78
2021/04/20 07:30:43;;;;;;;50.63;36.90;;;307.80;2278.40;;;;;;5112437;28;20427;-78
2021/04/20 07:33:09;;;;;;;56.33;38.08;;;307.80;2252.80;;;;;;5110942;28;20038;-78
2021/04/20 07:35:42;;;;;;;56.13;38.78;;;307.90;2252.80;;;;;;5112452;28;20425;-78
2021/04/20 07:38:22;;;;;;;49.28;37.90;;;307.90;2252.80;;;;;;5111222;28;20020;-78
2021/04/20 07:41:07;;;;;;;;;;;308.00;2227.20;;;;;;5112952;28;20108;-78
2021/04/20 07:43:47;;;;;;;48.00;35.85;;;308.00;2227.20;;;;;;5111030;28;19907;-78
2021/04/20 07:46:38;;;;;;;47.70;34.22;;;308.00;2227.20;;;;;;5111189;28;20090;-77
2021/04/20 07:49:27;;;;;;;43.55;33.33;;;308.00;2201.60;;;;;;5112497;28;20508;-78
2021/04/20 07:51:56;;;;;;;48.25;36.40;;;308.00;2201.60;;;;;;5111028;28;20503;-77
2021/04/20 07:54:31;;;;;;;48.08;36.97;;;308.10;2201.60;;;;;;5110853;28;20047;-78
2021/04/20 07:56:57;;;;;;;48.13;36.10;;;308.10;2201.60;;;;;;5112179;27;20103;-78
2021/04/20 07:59:38;;;;;;;51.85;39.15;;;332.80;2227.20;;;;;;5110577;28;20129;-79
2021/04/20 08:02:23;;;;;;;50.45;37.88;;;332.80;2227.20;;;;;;5110941;28;20058;-78
2021/04/20 08:04:53;;;;;;;46.63;37.35;;;332.80;2227.20;;;;;;5112416;28;20034;-77
2021/04/20 08:07:40;;;;;;;49.70;36.53;;;332.90;2227.20;;;;;;5110973;28;20028;-78
2021/04/20 08:10:10;;;;;;;48.15;35.50;;;332.90;2252.80;;;;;;5111922;28;20032;-78
2021/04/20 08:12:50;;;;;;;46.93;35.90;;;333.00;2227.20;;;;;;5112279;28;20019;-77
2021/04/20 08:15:39;;;;;;;44.17;36.33;;;333.00;2201.60;;;;;;5113462;28;20092;-78
2021/04/20 08:18:23;;;;;;;44.53;35.33;;;333.10;2201.60;;;;;;5111116;28;20035;-77
2021/04/20 08:20:52;;;;;;;44.53;36.58;;;333.10;2201.60;;;;;;5113777;28;20057;-78
2021/04/20 08:23:18;;;;;;;44.17;34.92;;;333.20;2176.00;;;;;;5111218;28;20031;-77
2021/04/20 08:25:59;;;;;;;46.60;33.95;;;333.20;2150.40;;;;;;5111899;28;20036;-78
2021/04/20 08:28:35;;;;;;;38.47;32.28;;;333.30;2176.00;;;;;;5112473;28;20034;-78
2021/04/20 08:31:07;;;;;;;38.80;31.35;;;333.30;2150.40;;;;;;5113671;28;20059;-78
2021/04/20 08:33:38;;;;;;;42.80;32.25;;;333.40;2124.80;;;;;;5112347;28;20122;-78
2021/04/20 08:36:10;;;;;;;36.00;29.13;;;333.40;2176.00;;;;;;5112180;28;20070;-81
2021/04/20 08:39:09;;;;;;;36.60;29.10;;;333.50;2124.80;;;;;;5112471;28;20093;-79
2021/04/20 08:42:23;;;;;;;37.88;29.63;;;333.50;2073.60;;;;;;5112268;28;20027;-79
2021/04/20 08:45:04;;;;;;;39.40;28.40;;;333.60;2073.60;;;;;;5036074;28;20028;-79
2021/04/20 08:47:48;;;;;;;34.42;27.95;;;333.60;2073.60;;;;;;5112826;28;20781;-78
2021/04/20 08:50:18;;;;;;;38.45;30.73;;;333.60;2099.20;;;;;;5122008;28;20057;-78
2021/04/20 08:53:21;;;;;;;45.63;31.13;;;333.70;2099.20;;;;;;5125053;28;20016;-78
2021/04/20 08:56:13;;;;;;;42.35;32.60;;;333.70;2124.80;;;;;;5111744;28;20115;-78
2021/04/20 08:59:08;;;;;;;38.58;30.55;;;358.40;2124.80;;;;;;5098540;28;20028;-79
2021/04/20 09:02:00;;;;;;;37.22;29.73;;;358.40;2124.80;;;;;;5112031;28;20111;-78
2021/04/20 09:04:58;;;;;;;40.42;30.05;;;358.50;2099.20;;;;;;5112306;28;20453;-78
2021/04/20 09:07:56;;;;;;;36.92;28.38;;;358.50;2099.20;;;;;;5115913;28;20020;-79
2021/04/20 09:10:31;;;;;;;34.20;28.05;;;358.50;2073.60;;;;;;5117400;28;20023;-78
2021/04/20 09:13:08;;;;;;;35.55;29.98;;;358.60;2048.00;;;;;;5116061;28;20149;-78
2021/04/20 09:15:41;;;;;;;35.40;30.25;;;358.60;2048.00;;;;;;5116054;28;20023;-78
2021/04/20 09:18:11;;;;;;;36.45;30.58;;;358.70;2048.00;;;;;;5116161;28;20016;-79
2021/04/20 09:20:39;;;;;;;;;;;358.70;2022.40;;;;;;5117732;28;20027;-78
2021/04/20 09:23:14;;;;;;;35.35;29.35;;;358.70;1996.80;;;;;;5114196;28;19904;-79
2021/04/20 09:26:04;;;;;;;37.25;30.27;;;358.70;2022.40;;;;;;5115784;28;20028;-80
2021/04/20 09:28:41;;;;;;;34.22;28.85;;;358.70;2048.00;;;;;;5114771;28;20104;-78
2021/04/20 09:31:13;;;;;;;30.15;25.55;;;358.80;1996.80;;;;;;5116185;28;20016;-79
2021/04/20 09:33:49;;;;;;;31.27;27.55;;;358.80;1971.20;;;;;;5114358;28;20031;-79
2021/04/20 09:36:15;;;;;;;32.92;28.20;;;358.80;1971.20;;;;;;5122303;28;20020;-78
2021/04/20 09:38:45;;;;;;;36.13;29.08;;;358.90;1996.80;;;;;;5121452;28;20026;-79
2021/04/20 09:41:13;;;;;;;43.80;32.40;;;358.90;1996.80;;;;;;5124756;28;20039;-79
2021/04/20 09:43:57;;;;;;;36.45;27.35;;;358.90;1996.80;;;;;;5115058;27;20024;-80
2021/04/20 09:46:34;;;;;;;44.05;28.95;;;359.00;1971.20;;;;;;5114813;28;20122;-80
2021/04/20 09:49:14;;;;;;;34.20;27.38;;;359.00;1971.20;;;;;;5115882;28;20023;-78
2021/04/20 09:51:51;;;;;;;30.58;25.80;;;359.00;1945.60;;;;;;5113285;28;20028;-80
2021/04/20 09:54:35;;;;;;;38.47;30.75;;;359.00;1945.60;;;;;;5112805;28;20045;-79
2021/04/20 09:57:05;;;;;;;37.97;29.23;;;359.00;1945.60;;;;;;5114662;28;20064;-79
2021/04/20 09:59:34;;;;;;;33.38;27.58;;;359.00;1945.60;;;;;;5112417;28;20128;-79
2021/04/20 10:03:01;;;;;;;32.20;25.83;;;359.00;1945.60;;;;;;5114364;28;20099;-79
2021/04/20 10:05:45;;;;;;;34.20;27.13;;;359.00;1894.40;;;;;;5058590;28;20047;-79
2021/04/20 10:08:56;;;;;;;30.70;23.13;;;359.00;1894.40;;;;;;5108435;28;20059;-79
2021/04/20 10:11:38;;;;;;;30.90;25.63;;;359.00;1920.00;;;;;;5074812;28;20035;-80
2021/04/20 10:14:54;;;;;;;28.35;24.13;;;359.00;1920.00;;;;;;5114455;27;20040;-81
2021/04/20 10:17:32;;;;;;;32.33;26.13;;;359.00;1920.00;;;;;;5068981;28;20168;-79
2021/04/20 10:20:13;;;;;;;31.90;25.88;;;359.00;1920.00;;;;;;5114140;28;20376;-79
2021/04/20 10:23:07;;;;;;;33.20;27.67;;;359.00;1894.40;;;;;;5114145;28;20023;-80
2021/04/20 10:25:48;;;;;;;34.30;27.95;;;359.00;1920.00;;;;;;5112786;28;20050;-79
2021/04/20 10:28:33;;;;;;;35.60;27.15;;;359.00;1920.00;;;;;;5112766;28;20496;-80
2021/04/20 10:31:14;;;;;;;35.60;27.27;;;359.00;1920.00;;;;;;5112553;28;20050;-79
2021/04/20 10:33:40;;;;;;;;;;;359.00;1920.00;;;;;;5114340;28;20020;-78
2021/04/20 10:36:06;;;;;;;39.80;29.33;;;359.00;1894.40;;;;;;5112089;28;19904;-79
2021/04/20 10:38:34;;;;;;;36.40;28.88;;;359.00;1920.00;;;;;;5113948;28;20032;-78
2021/04/20 10:41:04;;;;;;;35.65;28.65;;;359.00;1920.00;;;;;;5112253;28;20051;-79
2021/04/20 10:43:31;;;;;;;42.05;28.02;;;359.00;1945.60;;;;;;5112305;28;20070;-79
2021/04/20 10:46:06;;;;;;;33.45;25.83;;;359.00;1920.00;;;;;;5113078;28;20092;-86
2021/04/20 10:48:32;;;;;;;32.45;25.27;;;359.00;1920.00;;;;;;5116376;28;20023;-79
2021/04/20 10:50:58;;;;;;;33.40;26.92;;;359.00;1894.40;;;;;;5113978;28;20027;-79
2021/04/20 10:53:33;;;;;;;36.15;28.02;;;359.00;1894.40;;;;;;5095308;28;20035;-79
2021/04/20 10:56:06;;;;;;;37.13;27.10;;;359.00;1894.40;;;;;;5087568;28;20101;-79
2021/04/20 10:58:34;;;;;;;34.13;28.67;;;359.10;1920.00;;;;;;5092385;28;20015;-78
2021/04/20 11:01:00;;;;;;;38.97;28.38;;;359.10;1920.00;;;;;;5093624;28;20028;-78
2021/04/20 11:03:32;;;;;;;43.15;28.98;;;359.10;1920.00;;;;;;5093837;28;20088;-78
2021/04/20 11:05:58;;;;;;;34.17;27.45;;;359.20;1920.00;;;;;;5087812;28;20489;-78
2021/04/20 11:08:38;;;;;;;34.88;26.75;;;359.20;1894.40;;;;;;5088281;28;20085;-78
2021/04/20 11:11:05;;;;;;;32.33;26.98;;;359.20;1920.00;;;;;;5091319;28;20114;-78
2021/04/20 11:13:37;;;;;;;34.22;27.25;;;359.20;1894.40;;;;;;5091501;28;20039;-78
2021/04/20 11:16:11;;;;;;;33.38;26.27;;;359.20;1894.40;;;;;;5092469;28;20027;-77
2021/04/20 11:18:39;;;;;;;36.80;26.38;;;359.20;1868.80;;;;;;5092146;28;20136;-78
2021/04/20 11:21:12;;;;;;;33.53;27.02;;;359.20;1894.40;;;;;;5088520;28;20036;-78
2021/04/20 11:23:52;;;;;;;33.75;26.65;;;359.30;1894.40;;;;;;5092373;28;20089;-78
2021/04/20 11:26:22;;;;;;;36.53;28.73;;;359.30;1868.80;;;;;;5092471;28;20043;-78
2021/04/20 11:28:53;;;;;;;32.95;26.25;;;359.30;1868.80;;;;;;5090725;28;20114;-78
2021/04/20 11:31:19;;;;;;;31.75;26.52;;;359.30;1894.40;;;;;;5092316;28;20032;-77
2021/04/20 11:33:48;;;;;;;34.35;27.17;;;359.30;1868.80;;;;;;5091533;28;20041;-77
2021/04/20 11:36:51;;;;;;;37.30;28.60;;;359.30;1868.80;;;;;;5102510;28;20077;-78
2021/04/20 11:39:21;;;;;;;37.25;30.02;;;384.00;1868.80;;;;;;5089184;28;20142;-78
2021/04/20 11:41:59;;;;;;;37.60;29.65;;;384.00;1868.80;;;;;;5093487;28;20117;-78
2021/04/20 11:44:32;;;;;;;31.55;26.75;;;384.00;1868.80;;;;;;5091620;28;20032;-78
2021/04/20 11:47:00;;;;;;;39.63;28.33;;;384.00;1868.80;;;;;;5090983;28;20036;-78
2021/04/20 11:49:30;;;;;;;34.17;27.83;;;359.30;1868.80;;;;;;5089998;28;20024;-78
2021/04/20 11:51:59;;;;;;;37.03;29.80;;;359.30;1868.80;;;;;;5079891;28;20119;-77
2021/04/20 11:54:30;;;;;;;36.22;28.25;;;359.30;1894.40;;;;;;5071829;28;20779;-78
2021/04/20 11:57:04;;;;;;;40.20;30.13;;;359.30;1894.40;;;;;;5084592;28;20020;-78
2021/04/20 11:59:32;;;;;;;33.47;27.13;;;359.30;1894.40;;;;;;5094758;28;20024;-78
2021/04/20 12:02:00;;;;;;;32.70;26.88;;;384.00;1894.40;;;;;;5092324;28;20024;-79
2021/04/20 12:04:47;;;;;;;35.35;27.10;;;384.00;1920.00;;;;;;5091887;28;20393;-78
2021/04/20 12:07:24;;;;;;;37.70;29.25;;;384.00;1894.40;;;;;;5090582;28;20028;-78
2021/04/20 12:09:50;;;;;;;41.97;32.67;;;384.00;1894.40;;;;;;5090696;28;20035;-78
2021/04/20 12:12:24;;;;;;;41.25;32.83;;;384.00;1971.20;;;;;;5090363;28;20493;-79
2021/04/20 12:14:51;;;;;;;38.40;28.70;;;384.00;1945.60;;;;;;5090627;28;20128;-79
2021/04/20 12:17:33;;;;;;;35.35;26.73;;;384.00;1894.40;;;;;;5090190;28;20577;-79
2021/04/20 12:20:06;;;;;;;39.17;28.17;;;384.00;1894.40;;;;;;5090537;28;20032;-78
2021/04/20 12:22:32;;;;;;;34.33;27.30;;;384.10;1868.80;;;;;;5090638;28;20024;-79
2021/04/20 12:25:00;;;;;;;33.75;27.60;;;384.10;1868.80;;;;;;5091861;28;20031;-78
2021/04/20 12:27:29;;;;;;;33.60;27.25;;;384.10;1868.80;;;;;;5090593;28;20035;-79